Station: Curtin  

  Atmospheric Gas Attenuation - ITU Rec 676-11   ----------------- dB/100km -----------------
Date Time Temp RH % AH g/m3 Dew Point Wind Direction Speed kph Gust kph Barometer mB Rainfall Since 9am 24GHz 47GHz 76GHz 122GHz 134GHz 241GHz
08/05 09:20 24.6 30 6.75 5.9 24 32 1016.3 0 15.2 20.6 28.7 75.0 65.6 224.7
08/05 09:10 24.6 32 7.2 6.8 22 28 1016.3 0 16.2 21.2 30.2 78.9 70.4 241.7
08/05 09:00 24.1 33 7.22 6.8 22 30 1016.5 0 16.2 21.3 30.5 79.6 71.1 244.0
08/05 08:50 23.6 33 7.02 6.4 19 22 1016.4 0 15.8 21.2 30.0 78.3 69.3 237.7
08/05 08:40 23.2 33 6.86 6 24 30 1016.3 0 15.5 21.0 29.6 77.2 67.9 232.7
08/05 08:30 22.7 34 6.87 6 19 32 1016.5 0 15.6 21.2 29.8 77.8 68.5 234.5
08/05 08:20 22.8 36 7.31 7 17 24 1016.3 0 16.5 21.7 31.2 81.7 73.2 251.4
08/05 08:10 22.2 34 6.67 5.6 22 28 1016.3 0 15.2 21.0 29.3 76.5 66.7 228.2
08/05 08:00 21.9 36 6.95 6.2 20 33 1016.2 0 15.8 21.4 30.3 79.3 70.0 239.9
08/05 07:50 21.5 37 6.98 6.2 20 26 1016.2 0 15.8 21.6 30.6 79.9 70.7 242.3
08/05 07:40 21 36 6.59 5.4 19 24 1016.2 0 15.0 21.1 29.5 76.9 66.7 228.4
08/05 07:30 20.6 37 6.62 5.4 20 33 1016.1 0 15.1 21.3 29.7 77.5 67.4 230.6
08/05 07:20 20.2 38 6.64 5.4 19 22 1015.9 0 15.2 21.4 29.9 78.0 68.0 232.5
08/05 07:10 19.7 38 6.45 5 19 22 1015.9 0 14.8 21.2 29.4 76.8 66.2 226.4
08/05 07:00 19.4 39 6.51 5.1 19 28 1015.9 0 14.9 21.4 29.7 77.6 67.2 229.6
08/05 06:50 19.1 39 6.39 4.8 19 22 1015.9 0 14.7 21.3 29.4 76.8 66.0 225.7
08/05 06:40 18.9 39 6.32 4.7 22 28 1015.8 0 14.5 21.2 29.3 76.3 65.4 223.4
08/05 06:30 18.9 38 6.16 4.3 20 33 1015.7 0 14.2 21.0 28.7 74.9 63.6 217.0
08/05 06:20 18.8 38 6.12 4.2 20 26 1015.5 0 14.1 21.0 28.6 74.6 63.2 215.7
08/05 06:10 18.7 38 6.08 4.1 20 24 1015.4 0 14.0 20.9 28.5 74.3 62.8 214.3
08/05 06:00 18.6 39 6.21 4.4 20 30 1015.4 0 14.3 21.1 29.0 75.6 64.4 219.8
08/05 05:50 18.7 38 6.08 4.1 17 20 1015.3 0 14.0 20.9 28.5 74.3 62.8 214.3
08/05 05:40 18.7 38 6.08 4.1 20 22 1015.2 0 14.0 20.9 28.5 74.3 62.8 214.3
08/05 05:30 18.7 39 6.24 4.5 17 24 1015.2 0 14.4 21.2 29.0 75.7 64.6 220.6
08/05 05:20 18.9 38 6.16 4.3 13 17 1015.1 0 14.2 21.0 28.7 74.8 63.6 216.9
08/05 05:10 19 38 6.19 4.4 17 24 1014.9 0 14.3 21.0 28.8 75.0 63.8 217.8
08/05 05:00 19.2 37 6.1 4.2 19 28 1014.9 0 14.1 20.8 28.4 74.0 62.6 213.7
08/05 04:50 19.3 37 6.14 4.3 15 20 1014.9 0 14.2 20.9 28.5 74.2 63.0 215.0
08/05 04:40 19.6 36 6.08 4.1 20 24 1014.7 0 14.0 20.7 28.2 73.4 62.1 211.9
08/05 04:30 19.5 37 6.21 4.4 19 20 1014.7 0 14.3 20.9 28.6 74.7 63.6 217.2
08/05 04:20 19.8 36 6.15 4.3 22 28 1014.6 0 14.2 20.8 28.3 73.9 62.7 214.1
08/05 04:10 19.8 36 6.15 4.3 19 22 1014.6 0 14.2 20.8 28.3 73.9 62.7 214.1
08/05 04:00 19.8 36 6.15 4.3 19 28 1014.6 0 14.2 20.8 28.3 73.9 62.7 214.1
08/05 03:50 20 36 6.22 4.5 17 20 1014.5 0 14.3 20.8 28.5 74.3 63.3 216.3
08/05 03:40 20.1 36 6.26 4.6 20 24 1014.5 0 14.4 20.8 28.6 74.6 63.7 217.6
08/05 03:30 20.2 36 6.29 4.7 19 30 1014.5 0 14.4 20.9 28.7 74.8 64.0 218.5
08/05 03:20 20.3 35 6.16 4.4 17 20 1014.4 0 14.2 20.7 28.2 73.5 62.4 213.1
08/05 03:10 20.4 36 6.37 4.8 15 19 1014.4 0 14.6 20.9 28.9 75.3 64.7 221.0
08/05 03:00 20.6 35 6.26 4.6 19 24 1014.4 0 14.4 20.7 28.4 74.1 63.3 216.2
08/05 02:50 20.7 35 6.3 4.7 19 22 1014.3 0 14.4 20.8 28.5 74.4 63.7 217.5
08/05 02:40 20.9 35 6.37 4.9 20 24 1014.3 0 14.6 20.8 28.7 74.8 64.3 219.7
08/05 02:30 21 35 6.41 5 20 28 1014.3 0 14.7 20.8 28.8 75.1 64.6 221.0
08/05 02:20 21.1 35 6.45 5.1 22 26 1014.2 0 14.7 20.9 28.9 75.3 65.0 222.2
08/05 02:10 21.1 35 6.45 5.1 17 19 1014.2 0 14.7 20.9 28.9 75.3 65.0 222.2
08/05 02:00 21.4 35 6.56 5.3 20 32 1014.3 0 15.0 21.0 29.1 76.1 66.0 225.7
08/05 01:50 21.4 35 6.56 5.3 20 24 1014.4 0 15.0 21.0 29.1 76.1 66.0 225.7
08/05 01:40 21.5 35 6.6 5.4 19 24 1014.4 0 15.0 21.0 29.2 76.3 66.3 227.0
08/05 01:30 21.7 36 6.87 6 20 30 1014.4 0 15.6 21.3 30.1 78.6 69.2 237.0
08/05 01:20 21.9 35 6.75 5.8 17 22 1014.5 0 15.3 21.1 29.6 77.3 67.7 231.8
08/05 01:10 22 35 6.79 5.8 24 30 1014.5 0 15.4 21.1 29.7 77.6 68.0 233.0
08/05 01:00 22.1 35 6.83 5.9 22 33 1014.5 0 15.5 21.2 29.8 77.8 68.4 234.3
08/05 00:50 22.2 36 7.07 6.4 19 28 1014.7 0 16.0 21.5 30.6 79.9 71.0 243.4
08/05 00:40 22.2 36 7.07 6.4 20 26 1014.7 0 16.0 21.5 30.6 79.9 71.0 243.4
08/05 00:30 22.2 36 7.07 6.4 17 24 1014.7 0 16.0 21.5 30.6 79.9 71.0 243.4
08/05 00:20 22.2 37 7.26 6.8 15 20 1014.7 0 16.4 21.7 31.2 81.7 73.1 250.9
08/05 00:10 22.3 37 7.31 6.9 19 22 1014.8 0 16.5 21.8 31.4 82.0 73.6 252.6
08/05 00:00 22.6 36 7.23 6.8 19 28 1014.8 0 16.3 21.6 31.0 81.0 72.4 248.5
07/05 23:50 22.5 37 7.39 7.1 22 26 1014.9 0 16.6 21.9 31.6 82.6 74.3 255.1
07/05 23:40 22.6 37 7.43 7.2 19 22 1015 0 16.7 21.9 31.7 82.8 74.7 256.4
07/05 23:30 22.6 38 7.63 7.6 19 26 1015 0 17.1 22.2 32.4 84.7 76.9 264.4
07/05 23:20 22.8 37 7.52 7.4 19 24 1015 0 16.9 22.0 31.9 83.4 75.5 259.4
07/05 23:10 22.9 37 7.56 7.4 20 26 1015 0 17.0 22.0 32.0 83.7 75.9 260.6
07/05 23:00 22.8 38 7.72 7.8 20 28 1015 0 17.3 22.3 32.6 85.3 77.8 267.3
07/05 22:50 23 38 7.81 7.9 19 24 1015.1 0 17.5 22.3 32.8 85.9 78.6 270.2
07/05 22:40 23.2 37 7.69 7.7 19 24 1015.1 0 17.2 22.1 32.3 84.6 77.1 264.8
07/05 22:30 23.2 37 7.69 7.7 17 24 1015.3 0 17.2 22.1 32.3 84.6 77.1 264.9
07/05 22:20 23.2 37 7.69 7.7 17 20 1015.2 0 17.2 22.1 32.3 84.6 77.1 264.8
07/05 22:10 23 38 7.81 7.9 17 17 1015.2 0 17.5 22.3 32.8 85.9 78.6 270.3
07/05 22:00 23.2 38 7.9 8.1 13 20 1015.2 0 17.7 22.4 33.1 86.5 79.4 273.2
07/05 21:50 23.4 37 7.78 7.9 15 17 1015.2 0 17.4 22.2 32.6 85.2 77.9 267.8
07/05 21:40 23.4 37 7.78 7.9 15 20 1015.1 0 17.4 22.2 32.6 85.2 77.9 267.7
07/05 21:30 23.8 36 7.74 7.8 17 24 1015.2 0 17.3 22.0 32.3 84.4 77.1 264.9
07/05 21:20 24 36 7.83 8 15 19 1015.2 0 17.5 22.1 32.5 85.1 77.9 267.8
07/05 21:10 24.1 36 7.88 8.1 17 19 1015.2 0 17.6 22.2 32.6 85.4 78.3 269.4
07/05 21:00 24.2 36 7.92 8.2 17 22 1015.3 0 17.7 22.2 32.7 85.7 78.7 270.7
07/05 20:50 24.3 36 7.97 8.3 20 24 1015.2 0 17.8 22.2 32.9 86.0 79.1 272.3
07/05 20:40 24.2 36 7.92 8.2 19 24 1015.2 0 17.7 22.2 32.7 85.7 78.7 270.6
07/05 20:30 24.1 37 8.1 8.5 15 20 1015.2 0 18.1 22.5 33.4 87.4 80.8 278.1
07/05 20:20 24 38 8.27 8.8 17 20 1015.2 0 18.4 22.7 34.0 89.1 82.8 285.2
07/05 20:10 23.9 39 8.44 9.1 17 19 1015.1 0 18.8 23.0 34.6 90.8 84.9 292.3
07/05 20:00 23.8 40 8.6 9.4 15 20 1015 0 19.1 23.2 35.2 92.4 86.8 299.1
07/05 19:50 23.6 42 8.93 9.9 15 19 1014.9 0 19.8 23.8 36.5 95.7 90.9 313.3
07/05 19:40 23.4 43 9.04 10.1 15 19 1014.8 0 20.1 24.0 37.0 97.0 92.4 318.6
07/05 19:30 23.2 45 9.35 10.6 11 15 1014.6 0 20.7 24.5 38.2 100.2 96.3 332.2
07/05 19:20 23.2 45 9.35 10.6 11 11 1014.5 0 20.7 24.5 38.2 100.2 96.3 332.2
07/05 19:10 23.4 44 9.25 10.5 9 11 1014.3 0 20.5 24.3 37.7 98.9 94.8 327.2
07/05 19:00 23.6 44 9.36 10.6 11 13 1014.3 0 20.7 24.4 38.0 99.8 95.9 330.9
07/05 18:50 23.8 42 9.03 10.1 11 11 1014.3 0 20.0 23.8 36.7 96.4 91.8 316.5
07/05 18:40 24 42 9.14 10.3 11 13 1014.2 0 20.2 23.9 37.0 97.2 92.8 320.2
07/05 18:30 24.4 40 8.9 9.9 11 15 1014 0 19.7 23.5 36.0 94.4 89.6 308.8
07/05 18:20 24.5 40 8.95 10 11 13 1013.9 0 19.8 23.5 36.1 94.7 90.0 310.4
07/05 18:10 24.6 40 9 10.1 11 13 1013.8 0 19.9 23.6 36.2 95.1 90.5 312.0
07/05 18:00 24.9 40 9.16 10.4 9 11 1013.7 0 20.2 23.7 36.7 96.2 92.0 317.4
07/05 17:50 25.5 37 8.76 9.7 7 9 1013.5 0 19.4 23.0 35.0 91.8 86.7 299.0
07/05 17:40 26.1 36 8.81 9.9 11 13 1013.4 0 19.5 22.9 34.9 91.6 86.6 298.7
07/05 17:30 26.4 35 8.71 9.7 13 15 1013.3 0 19.2 22.7 34.4 90.3 85.2 293.7
07/05 17:20 26.5 36 9.01 10.2 11 13 1013.2 0 19.8 23.1 35.4 92.9 88.4 305.1
07/05 17:10 27.1 35 9.06 10.3 11 13 1013.1 0 19.9 23.0 35.3 92.7 88.3 304.8
07/05 17:00 27.9 32 8.66 9.7 13 17 1013 0 19.1 22.3 33.6 88.2 83.0 286.4
07/05 16:50 28.6 31 8.71 9.8 13 15 1012.9 0 19.1 22.2 33.5 87.9 82.9 285.8

Last Refresh: 08-May-2026 11:03:49

Bureau of Meteorology